sensor_id;sensor_type;location;lat;lon;timestamp;pressure;altitude;pressure_sealevel;temperature;humidity
1472;BME280;963;42.644;23.336;2023-04-19T00:00:08;93791.03;;;11.85;70.89
1472;BME280;963;42.644;23.336;2023-04-19T00:02:34;93794.06;;;11.91;70.63
1472;BME280;963;42.644;23.336;2023-04-19T00:05:00;93778.97;;;11.87;71.16
1472;BME280;963;42.644;23.336;2023-04-19T00:07:26;93784.28;;;11.95;71.03
1472;BME280;963;42.644;23.336;2023-04-19T00:09:52;93789.19;;;11.93;71.24
1472;BME280;963;42.644;23.336;2023-04-19T00:12:17;93783.53;;;11.94;70.94
1472;BME280;963;42.644;23.336;2023-04-19T00:14:43;93781.28;;;11.96;70.51
1472;BME280;963;42.644;23.336;2023-04-19T00:17:08;93797.47;;;11.98;70.77
1472;BME280;963;42.644;23.336;2023-04-19T00:19:36;93788.06;;;11.97;70.37
1472;BME280;963;42.644;23.336;2023-04-19T00:22:01;93775.25;;;11.99;70.64
1472;BME280;963;42.644;23.336;2023-04-19T00:24:27;93770.75;;;11.96;70.63
1472;BME280;963;42.644;23.336;2023-04-19T00:26:52;93779.78;;;11.95;70.56
1472;BME280;963;42.644;23.336;2023-04-19T00:29:18;93774.50;;;11.99;70.41
1472;BME280;963;42.644;23.336;2023-04-19T00:31:43;93759.81;;;11.94;70.50
1472;BME280;963;42.644;23.336;2023-04-19T00:34:08;93767.34;;;11.99;70.74
1472;BME280;963;42.644;23.336;2023-04-19T00:36:34;93757.56;;;11.93;70.53
1472;BME280;963;42.644;23.336;2023-04-19T00:39:00;93781.66;;;11.98;70.15
1472;BME280;963;42.644;23.336;2023-04-19T00:41:25;93771.50;;;11.97;70.90
1472;BME280;963;42.644;23.336;2023-04-19T00:43:50;93773.38;;;11.96;70.43
1472;BME280;963;42.644;23.336;2023-04-19T00:46:16;93779.03;;;11.98;70.32
1472;BME280;963;42.644;23.336;2023-04-19T00:48:41;93758.69;;;11.95;70.74
1472;BME280;963;42.644;23.336;2023-04-19T00:51:07;93759.44;;;11.92;70.88
1472;BME280;963;42.644;23.336;2023-04-19T00:53:34;93772.94;;;11.87;70.99
1472;BME280;963;42.644;23.336;2023-04-19T00:56:01;93763.16;;;11.87;70.92
1472;BME280;963;42.644;23.336;2023-04-19T00:58:29;93763.91;;;11.84;71.00
1472;BME280;963;42.644;23.336;2023-04-19T01:00:55;93757.88;;;11.84;71.09
1472;BME280;963;42.644;23.336;2023-04-19T01:03:21;93760.91;;;11.86;70.88
1472;BME280;963;42.644;23.336;2023-04-19T01:05:46;93757.13;;;11.87;71.03
1472;BME280;963;42.644;23.336;2023-04-19T01:08:13;93736.81;;;11.80;71.34
1472;BME280;963;42.644;23.336;2023-04-19T01:10:38;93746.22;;;11.88;71.25
1472;BME280;963;42.644;23.336;2023-04-19T01:13:04;93748.84;;;11.85;71.47
1472;BME280;963;42.644;23.336;2023-04-19T01:15:29;93744.34;;;11.85;71.24
1472;BME280;963;42.644;23.336;2023-04-19T01:17:56;93758.63;;;11.81;71.71
1472;BME280;963;42.644;23.336;2023-04-19T01:20:21;93753.00;;;11.79;71.81
1472;BME280;963;42.644;23.336;2023-04-19T01:22:47;93748.84;;;11.78;71.96
1472;BME280;963;42.644;23.336;2023-04-19T01:25:12;93767.63;;;11.69;72.67
1472;BME280;963;42.644;23.336;2023-04-19T01:27:38;93750.31;;;11.68;72.44
1472;BME280;963;42.644;23.336;2023-04-19T01:30:04;93744.28;;;11.61;72.47
1472;BME280;963;42.644;23.336;2023-04-19T01:32:30;93757.84;;;11.70;72.52
1472;BME280;963;42.644;23.336;2023-04-19T01:34:55;93755.56;;;11.68;72.50
1472;BME280;963;42.644;23.336;2023-04-19T01:37:21;93741.28;;;11.66;72.29
1472;BME280;963;42.644;23.336;2023-04-19T01:39:46;93747.66;;;11.68;72.41
1472;BME280;963;42.644;23.336;2023-04-19T01:42:11;93764.97;;;11.69;72.41
1472;BME280;963;42.644;23.336;2023-04-19T01:44:37;93748.06;;;11.70;72.10
1472;BME280;963;42.644;23.336;2023-04-19T01:47:03;93736.38;;;11.64;71.94
1472;BME280;963;42.644;23.336;2023-04-19T01:49:29;93750.69;;;11.74;71.55
1472;BME280;963;42.644;23.336;2023-04-19T01:51:54;93746.56;;;11.73;71.33
1472;BME280;963;42.644;23.336;2023-04-19T01:54:19;93743.91;;;11.66;71.70
1472;BME280;963;42.644;23.336;2023-04-19T01:56:45;93737.13;;;11.72;71.72
1472;BME280;963;42.644;23.336;2023-04-19T01:59:10;93739.03;;;11.71;71.80
1472;BME280;963;42.644;23.336;2023-04-19T02:01:35;93736.75;;;11.70;71.96
1472;BME280;963;42.644;23.336;2023-04-19T02:04:01;93735.25;;;11.69;72.02
1472;BME280;963;42.644;23.336;2023-04-19T02:06:27;93742.78;;;11.70;72.17
1472;BME280;963;42.644;23.336;2023-04-19T02:08:52;93760.84;;;11.68;72.29
1472;BME280;963;42.644;23.336;2023-04-19T02:11:18;93759.72;;;11.69;72.33
1472;BME280;963;42.644;23.336;2023-04-19T02:13:43;93731.47;;;11.59;72.31
1472;BME280;963;42.644;23.336;2023-04-19T02:16:09;93732.22;;;11.63;72.72
1472;BME280;963;42.644;23.336;2023-04-19T02:18:35;93745.03;;;11.65;72.52
1472;BME280;963;42.644;23.336;2023-04-19T02:21:04;93740.13;;;11.63;72.98
1472;BME280;963;42.644;23.336;2023-04-19T02:23:30;93744.66;;;11.63;72.84
1472;BME280;963;42.644;23.336;2023-04-19T02:25:55;93729.22;;;11.57;73.20
1472;BME280;963;42.644;23.336;2023-04-19T02:28:21;93732.97;;;11.56;73.45
1472;BME280;963;42.644;23.336;2023-04-19T02:30:47;93742.00;;;11.55;73.20
1472;BME280;963;42.644;23.336;2023-04-19T02:33:12;93722.00;;;11.47;73.16
1472;BME280;963;42.644;23.336;2023-04-19T02:35:37;93722.00;;;11.44;73.15
1472;BME280;963;42.644;23.336;2023-04-19T02:38:03;93712.56;;;11.36;73.30
1472;BME280;963;42.644;23.336;2023-04-19T02:40:29;93723.09;;;11.32;74.10
1472;BME280;963;42.644;23.336;2023-04-19T02:42:55;93729.13;;;11.40;73.33
1472;BME280;963;42.644;23.336;2023-04-19T02:45:20;93731.75;;;11.36;73.50
1472;BME280;963;42.644;23.336;2023-04-19T02:47:46;93732.84;;;11.24;73.86
1472;BME280;963;42.644;23.336;2023-04-19T02:50:12;93729.09;;;11.22;74.30
1472;BME280;963;42.644;23.336;2023-04-19T02:52:38;93734.00;;;11.27;74.54
1472;BME280;963;42.644;23.336;2023-04-19T02:55:05;93735.13;;;11.26;74.38
1472;BME280;963;42.644;23.336;2023-04-19T02:57:30;93720.06;;;11.19;74.53
1472;BME280;963;42.644;23.336;2023-04-19T02:59:56;93726.81;;;11.20;74.49
1472;BME280;963;42.644;23.336;2023-04-19T03:02:21;93731.34;;;11.27;74.21
1472;BME280;963;42.644;23.336;2023-04-19T03:04:47;93735.84;;;11.23;73.86
1472;BME280;963;42.644;23.336;2023-04-19T03:07:12;93728.31;;;11.18;73.99
1472;BME280;963;42.644;23.336;2023-04-19T03:09:38;93738.84;;;11.21;73.93
1472;BME280;963;42.644;23.336;2023-04-19T03:12:04;93729.41;;;11.13;73.78
1472;BME280;963;42.644;23.336;2023-04-19T03:14:29;93771.50;;;11.10;73.73
1472;BME280;963;42.644;23.336;2023-04-19T03:16:55;93724.13;;;11.10;73.29
1472;BME280;963;42.644;23.336;2023-04-19T03:19:20;93729.44;;;11.17;73.41
1472;BME280;963;42.644;23.336;2023-04-19T03:21:46;93746.38;;;11.19;73.51
1472;BME280;963;42.644;23.336;2023-04-19T03:24:11;93736.53;;;11.13;73.71
1472;BME280;963;42.644;23.336;2023-04-19T03:26:36;93725.25;;;11.09;74.00
1472;BME280;963;42.644;23.336;2023-04-19T03:29:02;93725.22;;;11.05;74.56
1472;BME280;963;42.644;23.336;2023-04-19T03:31:27;93733.50;;;11.07;74.25
1472;BME280;963;42.644;23.336;2023-04-19T03:33:53;93726.00;;;11.09;74.11
1472;BME280;963;42.644;23.336;2023-04-19T03:36:20;93729.38;;;11.06;74.20
1472;BME280;963;42.644;23.336;2023-04-19T03:38:45;93726.00;;;11.09;73.74
1472;BME280;963;42.644;23.336;2023-04-19T03:41:21;93718.81;;;10.99;74.27
1472;BME280;963;42.644;23.336;2023-04-19T03:43:47;93734.63;;;11.06;74.35
1472;BME280;963;42.644;23.336;2023-04-19T03:46:13;93725.59;;;11.04;74.61
1472;BME280;963;42.644;23.336;2023-04-19T03:48:38;93736.13;;;11.04;74.31
1472;BME280;963;42.644;23.336;2023-04-19T03:51:03;93722.97;;;11.04;74.45
1472;BME280;963;42.644;23.336;2023-04-19T03:53:29;93742.50;;;10.99;74.48
1472;BME280;963;42.644;23.336;2023-04-19T03:55:54;93726.72;;;11.03;73.87
1472;BME280;963;42.644;23.336;2023-04-19T03:58:21;93749.28;;;11.04;74.05
1472;BME280;963;42.644;23.336;2023-04-19T04:00:47;93729.28;;;10.88;74.41
1472;BME280;963;42.644;23.336;2023-04-19T04:03:12;93722.94;;;10.96;73.96
1472;BME280;963;42.644;23.336;2023-04-19T04:05:37;93738.72;;;10.96;73.64
1472;BME280;963;42.644;23.336;2023-04-19T04:08:03;93715.38;;;10.84;73.93
1472;BME280;963;42.644;23.336;2023-04-19T04:10:28;93715.41;;;10.95;73.62
1472;BME280;963;42.644;23.336;2023-04-19T04:12:54;93740.59;;;10.96;73.79
1472;BME280;963;42.644;23.336;2023-04-19T04:15:19;93734.59;;;10.95;73.67
1472;BME280;963;42.644;23.336;2023-04-19T04:17:45;93739.50;;;11.01;73.17
1472;BME280;963;42.644;23.336;2023-04-19T04:20:10;93720.66;;;10.91;73.52
1472;BME280;963;42.644;23.336;2023-04-19T04:22:41;93738.72;;;10.96;73.91
1472;BME280;963;42.644;23.336;2023-04-19T04:25:08;93760.47;;;10.86;74.13
1472;BME280;963;42.644;23.336;2023-04-19T04:27:33;93751.50;;;10.94;74.12
1472;BME280;963;42.644;23.336;2023-04-19T04:29:59;93737.97;;;10.92;73.88
1472;BME280;963;42.644;23.336;2023-04-19T04:32:25;93743.19;;;10.89;74.17
1472;BME280;963;42.644;23.336;2023-04-19T04:34:50;93738.72;;;10.93;73.96
1472;BME280;963;42.644;23.336;2023-04-19T04:37:16;93739.47;;;10.93;74.20
1472;BME280;963;42.644;23.336;2023-04-19T04:39:42;93747.75;;;10.95;73.69
1472;BME280;963;42.644;23.336;2023-04-19T04:42:07;93739.09;;;10.91;73.60
1472;BME280;963;42.644;23.336;2023-04-19T04:44:34;93753.03;;;10.99;73.57
1472;BME280;963;42.644;23.336;2023-04-19T04:46:59;93747.75;;;10.95;73.50
1472;BME280;963;42.644;23.336;2023-04-19T04:49:25;93749.25;;;10.96;73.30
1472;BME280;963;42.644;23.336;2023-04-19T04:51:50;93739.13;;;10.99;72.70
1472;BME280;963;42.644;23.336;2023-04-19T04:54:16;93761.69;;;11.00;72.87
1472;BME280;963;42.644;23.336;2023-04-19T04:56:41;93736.09;;;10.96;73.02
1472;BME280;963;42.644;23.336;2023-04-19T04:59:07;93756.03;;;11.01;73.04
1472;BME280;963;42.644;23.336;2023-04-19T05:01:32;93739.13;;;11.02;72.71
1472;BME280;963;42.644;23.336;2023-04-19T05:03:58;93743.28;;;11.10;72.81
1472;BME280;963;42.644;23.336;2023-04-19T05:06:23;93740.25;;;10.98;73.01
1472;BME280;963;42.644;23.336;2023-04-19T05:08:48;93736.47;;;10.99;72.87
1472;BME280;963;42.644;23.336;2023-04-19T05:11:14;93751.91;;;11.04;72.92
1472;BME280;963;42.644;23.336;2023-04-19T05:13:39;93750.78;;;11.05;73.33
1472;BME280;963;42.644;23.336;2023-04-19T05:16:05;93753.78;;;11.00;73.42
1472;BME280;963;42.644;23.336;2023-04-19T05:18:30;93754.19;;;11.09;73.24
1472;BME280;963;42.644;23.336;2023-04-19T05:20:56;93750.81;;;11.12;72.52
1472;BME280;963;42.644;23.336;2023-04-19T05:23:22;93754.16;;;10.98;72.70
1472;BME280;963;42.644;23.336;2023-04-19T05:25:47;93748.16;;;11.05;72.80
1472;BME280;963;42.644;23.336;2023-04-19T05:28:12;93753.81;;;11.07;72.79
1472;BME280;963;42.644;23.336;2023-04-19T05:30:38;93753.44;;;11.08;73.25
1472;BME280;963;42.644;23.336;2023-04-19T05:33:03;93765.88;;;11.11;72.86
1472;BME280;963;42.644;23.336;2023-04-19T05:35:29;93754.19;;;11.09;73.39
1472;BME280;963;42.644;23.336;2023-04-19T05:37:54;93749.69;;;11.09;73.26
1472;BME280;963;42.644;23.336;2023-04-19T05:40:20;93753.84;;;11.14;73.11
1472;BME280;963;42.644;23.336;2023-04-19T05:42:47;93753.88;;;11.17;73.01
1472;BME280;963;42.644;23.336;2023-04-19T05:45:14;93759.91;;;11.18;73.30
1472;BME280;963;42.644;23.336;2023-04-19T05:47:39;93750.09;;;11.15;73.23
1472;BME280;963;42.644;23.336;2023-04-19T05:50:05;93761.06;;;11.24;72.97
1472;BME280;963;42.644;23.336;2023-04-19T05:52:31;93768.97;;;11.27;73.01
1472;BME280;963;42.644;23.336;2023-04-19T05:54:57;93729.75;;;11.08;73.14
1472;BME280;963;42.644;23.336;2023-04-19T05:57:22;93773.88;;;11.29;73.00
1472;BME280;963;42.644;23.336;2023-04-19T05:59:48;93752.78;;;11.22;73.11
1472;BME280;963;42.644;23.336;2023-04-19T06:02:13;93770.50;;;11.32;73.10
1472;BME280;963;42.644;23.336;2023-04-19T06:04:39;93764.47;;;11.35;73.14
1472;BME280;963;42.644;23.336;2023-04-19T06:07:05;93762.91;;;11.20;73.48
1472;BME280;963;42.644;23.336;2023-04-19T06:09:30;93769.00;;;11.38;72.84
1472;BME280;963;42.644;23.336;2023-04-19T06:11:56;93769.78;;;11.42;72.83
1472;BME280;963;42.644;23.336;2023-04-19T06:14:22;93766.41;;;11.45;72.78
1472;BME280;963;42.644;23.336;2023-04-19T06:16:47;93776.56;;;11.50;72.48
1472;BME280;963;42.644;23.336;2023-04-19T06:19:13;93763.03;;;11.52;72.47
1472;BME280;963;42.644;23.336;2023-04-19T06:21:38;93757.75;;;11.48;71.91
1472;BME280;963;42.644;23.336;2023-04-19T06:24:05;93767.59;;;11.55;71.84
1472;BME280;963;42.644;23.336;2023-04-19T06:26:31;93771.34;;;11.57;72.13
1472;BME280;963;42.644;23.336;2023-04-19T06:28:57;93772.47;;;11.56;72.01
1472;BME280;963;42.644;23.336;2023-04-19T06:31:22;93775.13;;;11.64;71.96
1472;BME280;963;42.644;23.336;2023-04-19T06:33:48;93775.16;;;11.71;71.38
1472;BME280;963;42.644;23.336;2023-04-19T06:36:13;93783.47;;;11.80;71.27
1472;BME280;963;42.644;23.336;2023-04-19T06:38:39;93772.16;;;11.76;71.50
1472;BME280;963;42.644;23.336;2023-04-19T06:41:06;93763.56;;;11.89;70.35
1472;BME280;963;42.644;23.336;2023-04-19T06:43:32;93775.25;;;11.99;70.22
1472;BME280;963;42.644;23.336;2023-04-19T06:46:01;93776.41;;;12.05;69.73
1472;BME280;963;42.644;23.336;2023-04-19T06:48:28;93772.63;;;12.03;69.64
1472;BME280;963;42.644;23.336;2023-04-19T06:50:54;93767.75;;;12.08;69.48
1472;BME280;963;42.644;23.336;2023-04-19T06:53:19;93777.53;;;12.15;69.59
1472;BME280;963;42.644;23.336;2023-04-19T06:55:45;93776.78;;;12.14;69.13
1472;BME280;963;42.644;23.336;2023-04-19T06:58:10;93784.28;;;11.98;69.22
1472;BME280;963;42.644;23.336;2023-04-19T07:00:36;93783.94;;;12.10;69.68
1472;BME280;963;42.644;23.336;2023-04-19T07:03:02;93775.28;;;12.20;68.71
1472;BME280;963;42.644;23.336;2023-04-19T07:05:29;93765.50;;;12.32;68.34
1472;BME280;963;42.644;23.336;2023-04-19T07:07:55;93782.84;;;12.47;68.48
1472;BME280;963;42.644;23.336;2023-04-19T07:10:20;93779.81;;;12.45;67.56
1472;BME280;963;42.644;23.336;2023-04-19T07:12:46;93787.75;;;12.38;68.37
1472;BME280;963;42.644;23.336;2023-04-19T07:15:11;93770.03;;;12.49;67.84
1472;BME280;963;42.644;23.336;2023-04-19T07:17:37;93805.81;;;12.53;67.71
1472;BME280;963;42.644;23.336;2023-04-19T07:20:03;93762.88;;;12.57;67.29
1472;BME280;963;42.644;23.336;2023-04-19T07:22:31;93781.34;;;12.74;67.16
1472;BME280;963;42.644;23.336;2023-04-19T07:24:56;93785.09;;;12.88;66.84
1472;BME280;963;42.644;23.336;2023-04-19T07:27:22;93785.84;;;12.84;66.64
1472;BME280;963;42.644;23.336;2023-04-19T07:29:48;93757.97;;;12.76;66.12
1472;BME280;963;42.644;23.336;2023-04-19T07:32:13;93788.06;;;13.00;66.20
1472;BME280;963;42.644;23.336;2023-04-19T07:34:39;93780.16;;;13.11;65.56
1472;BME280;963;42.644;23.336;2023-04-19T07:37:06;93790.72;;;13.18;65.78
1472;BME280;963;42.644;23.336;2023-04-19T07:39:31;93787.69;;;13.20;65.24
1472;BME280;963;42.644;23.336;2023-04-19T07:41:57;93787.31;;;13.10;65.40
1472;BME280;963;42.644;23.336;2023-04-19T07:44:22;93799.75;;;13.24;65.43
1472;BME280;963;42.644;23.336;2023-04-19T07:46:48;93775.66;;;13.01;65.28
1472;BME280;963;42.644;23.336;2023-04-19T07:49:14;93788.06;;;13.25;65.09
1472;BME280;963;42.644;23.336;2023-04-19T07:51:39;93783.50;;;13.36;64.38
1472;BME280;963;42.644;23.336;2023-04-19T07:54:05;93788.03;;;13.39;64.73
1472;BME280;963;42.644;23.336;2023-04-19T07:56:31;93779.38;;;13.39;65.15
1472;BME280;963;42.644;23.336;2023-04-19T07:58:56;93783.50;;;13.33;65.03
1472;BME280;963;42.644;23.336;2023-04-19T08:01:22;93774.41;;;13.48;64.71
1472;BME280;963;42.644;23.336;2023-04-19T08:03:48;93770.28;;;13.47;64.55
1472;BME280;963;42.644;23.336;2023-04-19T08:06:13;93782.63;;;13.68;63.64
1472;BME280;963;42.644;23.336;2023-04-19T08:08:38;93790.94;;;13.66;63.83
1472;BME280;963;42.644;23.336;2023-04-19T08:11:04;93786.09;;;13.51;63.82
1472;BME280;963;42.644;23.336;2023-04-19T08:13:30;93784.22;;;13.48;64.30
1472;BME280;963;42.644;23.336;2023-04-19T08:15:56;93790.25;;;13.52;64.71
1472;BME280;963;42.644;23.336;2023-04-19T08:18:22;93776.28;;;13.55;64.81
1472;BME280;963;42.644;23.336;2023-04-19T08:20:47;93778.53;;;13.56;64.64
1472;BME280;963;42.644;23.336;2023-04-19T08:23:13;93761.56;;;13.54;64.13
1472;BME280;963;42.644;23.336;2023-04-19T08:25:39;93782.28;;;13.62;64.23
1472;BME280;963;42.644;23.336;2023-04-19T08:28:04;93771.34;;;13.57;64.39
1472;BME280;963;42.644;23.336;2023-04-19T08:30:31;93783.41;;;13.65;64.18
1472;BME280;963;42.644;23.336;2023-04-19T08:32:56;93789.81;;;13.67;64.12
1472;BME280;963;42.644;23.336;2023-04-19T08:35:21;93766.78;;;13.64;64.03
1472;BME280;963;42.644;23.336;2023-04-19T08:37:47;93775.06;;;13.77;63.50
1472;BME280;963;42.644;23.336;2023-04-19T08:40:14;93773.56;;;13.69;63.46
1472;BME280;963;42.644;23.336;2023-04-19T08:42:41;93765.22;;;13.74;63.53
1472;BME280;963;42.644;23.336;2023-04-19T08:45:07;93764.16;;;13.64;64.06
1472;BME280;963;42.644;23.336;2023-04-19T08:47:33;93763.72;;;13.80;63.64
1472;BME280;963;42.644;23.336;2023-04-19T08:50:08;93773.09;;;13.92;62.42
1472;BME280;963;42.644;23.336;2023-04-19T08:52:36;93762.91;;;13.90;62.69
1472;BME280;963;42.644;23.336;2023-04-19T08:55:06;93764.72;;;14.00;62.65
1472;BME280;963;42.644;23.336;2023-04-19T08:57:33;93765.78;;;14.10;62.12
1472;BME280;963;42.644;23.336;2023-04-19T08:59:59;93768.03;;;14.12;62.47
1472;BME280;963;42.644;23.336;2023-04-19T09:02:25;93767.66;;;14.17;62.13
1472;BME280;963;42.644;23.336;2023-04-19T09:04:51;93751.00;;;14.20;61.82
1472;BME280;963;42.644;23.336;2023-04-19T09:07:24;93754.78;;;14.22;61.98
1472;BME280;963;42.644;23.336;2023-04-19T09:10:06;93753.25;;;14.25;61.98
1472;BME280;963;42.644;23.336;2023-04-19T09:12:33;93748.66;;;14.32;61.53
1472;BME280;963;42.644;23.336;2023-04-19T09:15:00;93755.88;;;14.25;61.62
1472;BME280;963;42.644;23.336;2023-04-19T09:17:25;93753.59;;;14.27;61.16
1472;BME280;963;42.644;23.336;2023-04-19T09:19:51;93758.81;;;14.37;61.13
1472;BME280;963;42.644;23.336;2023-04-19T09:22:17;93740.25;;;14.45;61.08
1472;BME280;963;42.644;23.336;2023-04-19T09:24:43;93744.38;;;14.49;61.05
1472;BME280;963;42.644;23.336;2023-04-19T09:27:08;93738.38;;;14.42;60.77
1472;BME280;963;42.644;23.336;2023-04-19T09:29:36;93728.53;;;14.42;59.89
1472;BME280;963;42.644;23.336;2023-04-19T09:32:02;93750.44;;;14.46;59.87
1472;BME280;963;42.644;23.336;2023-04-19T09:34:28;93753.91;;;14.36;60.18
1472;BME280;963;42.644;23.336;2023-04-19T09:36:55;93751.22;;;14.47;60.12
1472;BME280;963;42.644;23.336;2023-04-19T09:39:32;93744.78;;;14.48;60.69
1472;BME280;963;42.644;23.336;2023-04-19T09:42:00;93746.22;;;14.59;59.87
1472;BME280;963;42.644;23.336;2023-04-19T09:44:26;93747.97;;;14.73;59.76
1472;BME280;963;42.644;23.336;2023-04-19T09:46:52;93750.22;;;14.75;60.21
1472;BME280;963;42.644;23.336;2023-04-19T09:49:21;93734.72;;;14.73;59.90
1472;BME280;963;42.644;23.336;2023-04-19T09:51:55;93744.66;;;15.03;59.10
1472;BME280;963;42.644;23.336;2023-04-19T09:54:23;93723.47;;;15.03;58.92
1472;BME280;963;42.644;23.336;2023-04-19T09:56:49;93725.97;;;15.17;58.61
1472;BME280;963;42.644;23.336;2023-04-19T09:59:16;93720.97;;;15.26;58.36
1472;BME280;963;42.644;23.336;2023-04-19T10:01:55;93700.13;;;15.28;57.17
1472;BME280;963;42.644;23.336;2023-04-19T10:04:21;93720.00;;;15.44;56.50
1472;BME280;963;42.644;23.336;2023-04-19T10:06:51;93702.84;;;15.52;56.39
1472;BME280;963;42.644;23.336;2023-04-19T10:09:18;93719.03;;;15.65;56.53
1472;BME280;963;42.644;23.336;2023-04-19T10:11:48;93709.88;;;15.69;56.06
1472;BME280;963;42.644;23.336;2023-04-19T10:14:15;93725.69;;;15.76;56.52
1472;BME280;963;42.644;23.336;2023-04-19T10:16:41;93707.56;;;15.71;56.75
1472;BME280;963;42.644;23.336;2023-04-19T10:19:11;93707.56;;;15.71;56.32
1472;BME280;963;42.644;23.336;2023-04-19T10:21:39;93709.50;;;15.94;56.08
1472;BME280;963;42.644;23.336;2023-04-19T10:24:06;93700.75;;;15.97;53.73
1472;BME280;963;42.644;23.336;2023-04-19T10:27:08;93706.16;;;16.17;53.49
1472;BME280;963;42.644;23.336;2023-04-19T10:30:01;93710.22;;;15.98;52.64
1472;BME280;963;42.644;23.336;2023-04-19T10:32:42;93706.84;;;16.21;52.68
1472;BME280;963;42.644;23.336;2023-04-19T10:38:14;93693.41;;;16.32;52.85
1472;BME280;963;42.644;23.336;2023-04-19T10:40:59;93692.31;;;16.29;54.57
1472;BME280;963;42.644;23.336;2023-04-19T10:43:30;93684.66;;;16.35;53.98
1472;BME280;963;42.644;23.336;2023-04-19T10:46:01;93683.69;;;16.48;53.60
1472;BME280;963;42.644;23.336;2023-04-19T10:51:16;93672.06;;;16.62;53.59
1472;BME280;963;42.644;23.336;2023-04-19T11:04:04;93657.34;;;16.81;50.88
1472;BME280;963;42.644;23.336;2023-04-19T11:06:33;93650.88;;;17.02;50.97
1472;BME280;963;42.644;23.336;2023-04-19T11:08:59;93659.03;;;17.31;51.37
1472;BME280;963;42.644;23.336;2023-04-19T11:11:25;93663.19;;;17.32;50.66
1472;BME280;963;42.644;23.336;2023-04-19T11:13:53;93653.31;;;17.32;49.26
1472;BME280;963;42.644;23.336;2023-04-19T11:16:19;93665.94;;;17.48;49.48
1472;BME280;963;42.644;23.336;2023-04-19T11:18:45;93660.78;;;17.57;48.69
1472;BME280;963;42.644;23.336;2023-04-19T11:21:13;93666.25;;;17.70;48.67
1472;BME280;963;42.644;23.336;2023-04-19T11:23:39;93665.41;;;17.73;48.38
1472;BME280;963;42.644;23.336;2023-04-19T11:26:09;93656.72;;;17.89;47.91
1472;BME280;963;42.644;23.336;2023-04-19T11:28:35;93657.22;;;18.00;47.71
1472;BME280;963;42.644;23.336;2023-04-19T11:31:01;93643.91;;;18.16;47.39
1472;BME280;963;42.644;23.336;2023-04-19T11:33:32;93656.81;;;18.01;46.91
1472;BME280;963;42.644;23.336;2023-04-19T11:35:58;93653.72;;;17.87;47.75
1472;BME280;963;42.644;23.336;2023-04-19T11:38:26;93646.56;;;18.00;47.32
1472;BME280;963;42.644;23.336;2023-04-19T11:41:02;93650.63;;;18.21;47.14
1472;BME280;963;42.644;23.336;2023-04-19T11:43:34;93645.56;;;18.42;46.58
1472;BME280;963;42.644;23.336;2023-04-19T11:46:12;93654.53;;;18.49;45.20
1472;BME280;963;42.644;23.336;2023-04-19T11:48:49;93651.03;;;18.52;44.58
1472;BME280;963;42.644;23.336;2023-04-19T11:51:16;93658.88;;;18.59;44.98
1472;BME280;963;42.644;23.336;2023-04-19T11:53:41;93650.53;;;18.57;44.78
1472;BME280;963;42.644;23.336;2023-04-19T11:56:08;93639.06;;;18.60;44.75
1472;BME280;963;42.644;23.336;2023-04-19T11:58:40;93638.47;;;18.68;43.52
1472;BME280;963;42.644;23.336;2023-04-19T12:01:13;93638.59;;;18.78;43.96
1472;BME280;963;42.644;23.336;2023-04-19T12:06:10;93639.81;;;18.89;43.19
1472;BME280;963;42.644;23.336;2023-04-19T12:08:44;93638.59;;;19.07;42.43
1472;BME280;963;42.644;23.336;2023-04-19T12:11:11;93639.66;;;18.96;41.33
1472;BME280;963;42.644;23.336;2023-04-19T12:13:37;93626.72;;;18.95;42.20
1472;BME280;963;42.644;23.336;2023-04-19T12:16:05;93629.44;;;19.08;42.80
1472;BME280;963;42.644;23.336;2023-04-19T12:18:48;93599.25;;;18.98;41.90
1472;BME280;963;42.644;23.336;2023-04-19T12:21:28;93616.72;;;18.99;42.15
1472;BME280;963;42.644;23.336;2023-04-19T12:23:59;93621.31;;;18.98;42.59
1472;BME280;963;42.644;23.336;2023-04-19T12:26:26;93629.75;;;19.10;42.92
1472;BME280;963;42.644;23.336;2023-04-19T12:28:53;93623.59;;;19.13;42.88
1472;BME280;963;42.644;23.336;2023-04-19T12:31:19;93628.47;;;19.01;43.22
1472;BME280;963;42.644;23.336;2023-04-19T12:33:45;93625.97;;;18.94;43.16
1472;BME280;963;42.644;23.336;2023-04-19T12:36:10;93606.28;;;18.63;43.58
1472;BME280;963;42.644;23.336;2023-04-19T12:38:36;93626.56;;;18.73;43.15
1472;BME280;963;42.644;23.336;2023-04-19T12:41:02;93626.81;;;18.91;42.45
1472;BME280;963;42.644;23.336;2023-04-19T12:43:27;93626.16;;;18.87;42.22
1472;BME280;963;42.644;23.336;2023-04-19T12:45:54;93620.75;;;18.91;41.63
1472;BME280;963;42.644;23.336;2023-04-19T12:48:20;93626.66;;;18.98;42.06
1472;BME280;963;42.644;23.336;2023-04-19T12:50:45;93621.69;;;19.26;42.40
1472;BME280;963;42.644;23.336;2023-04-19T12:53:11;93612.44;;;19.43;42.19
1472;BME280;963;42.644;23.336;2023-04-19T12:55:36;93636.50;;;19.27;42.35
1472;BME280;963;42.644;23.336;2023-04-19T12:58:01;93620.66;;;19.36;42.86
1472;BME280;963;42.644;23.336;2023-04-19T13:00:27;93617.28;;;19.07;43.56
1472;BME280;963;42.644;23.336;2023-04-19T13:02:54;93609.13;;;19.39;42.83
1472;BME280;963;42.644;23.336;2023-04-19T13:05:19;93623.66;;;19.51;42.97
1472;BME280;963;42.644;23.336;2023-04-19T13:07:45;93615.25;;;19.78;42.09
1472;BME280;963;42.644;23.336;2023-04-19T13:10:11;93614.69;;;19.95;41.70
1472;BME280;963;42.644;23.336;2023-04-19T13:12:36;93633.50;;;19.92;42.57
1472;BME280;963;42.644;23.336;2023-04-19T13:15:02;93637.09;;;18.15;48.33
1472;BME280;963;42.644;23.336;2023-04-19T13:17:27;93644.38;;;18.60;48.19
1472;BME280;963;42.644;23.336;2023-04-19T13:19:53;93651.19;;;18.61;48.11
1472;BME280;963;42.644;23.336;2023-04-19T13:22:18;93662.63;;;18.29;46.66
1472;BME280;963;42.644;23.336;2023-04-19T13:24:44;93654.97;;;17.98;46.58
1472;BME280;963;42.644;23.336;2023-04-19T13:27:09;93650.69;;;17.68;47.09
1472;BME280;963;42.644;23.336;2023-04-19T13:29:35;93673.69;;;16.79;49.38
1472;BME280;963;42.644;23.336;2023-04-19T13:32:01;93650.19;;;16.98;49.44
1472;BME280;963;42.644;23.336;2023-04-19T13:34:26;93643.25;;;16.84;49.94
1472;BME280;963;42.644;23.336;2023-04-19T13:36:52;93654.63;;;17.04;49.88